Houston, Texas
Traffic Map
Current Weather Conditions
Houston, Texas
Overcast Thunderstorm
Overcast
67°
Feels Like: 67°
Wind Chill: 67° Ceiling: 9000
Heat Index: 67° Visibility: 7mi
Dew Point: 65° Wind: 5mph
Humidity: 93% Direction: 280° (W)
Pressure: 29.69in Gusts: 0mph
Raw Report DataKIAH 202353Z 28004KT 7SM -TSRA FEW020 SCT040CB BKN090 OVC250 19/18 A2969 RMK AO2 LTG DSNT ALQDS RAB01 TSB22 SLP052 FRQ LTGICCCCG ALQDS TS ALQDS MOV NE P0000 60011 T01940183 10256 20194 58002
Traffic Incident Summary
Active as of:
Severity:
Category:
InformationThere was an issue retrieving the traffic information for this location. Please try a different location or try again shortly.
Advertisements
Track Severe Weather on mobile